Time;durP1;ratioP1;P1;durP2;ratioP2;P2;SDS_P1;SDS_P2;PMS_P1;PMS_P2;Temp;Humidity;BMP_temperature;BMP_pressure;BME280_temperature;BME280_humidity;BME280_pressure;Samples;Min_cycle;Max_cycle;Signal;HPM_P1;HPM_P2
2021/04/15 00:00:40;;;;;;;6.97;5.03;;;5.80;99.90;;;;;;5002710;28;20432;-71
2021/04/15 00:03:12;;;;;;;5.63;5.03;;;5.80;99.90;;;;;;5001820;28;20454;-70
2021/04/15 00:05:38;;;;;;;5.40;4.90;;;5.70;99.90;;;;;;5004234;28;20444;-72
2021/04/15 00:08:07;;;;;;;5.50;4.77;;;5.70;99.90;;;;;;5001047;28;21001;-72
2021/04/15 00:10:39;;;;;;;5.40;4.87;;;5.60;99.90;;;;;;5000592;28;21659;-70
2021/04/15 00:13:07;;;;;;;6.13;5.53;;;5.60;99.90;;;;;;5003046;28;20498;-70
2021/04/15 00:15:33;;;;;;;5.80;5.30;;;5.60;99.90;;;;;;5002752;28;20467;-71
2021/04/15 00:17:59;;;;;;;4.83;4.43;;;5.50;99.90;;;;;;5004404;28;20444;-70
2021/04/15 00:20:24;;;;;;;5.67;5.17;;;5.50;99.90;;;;;;5006820;28;20224;-71
2021/04/15 00:22:50;;;;;;;5.67;4.77;;;5.50;99.90;;;;;;5002548;28;20185;-70
2021/04/15 00:25:16;;;;;;;6.03;5.40;;;5.50;99.90;;;;;;4999615;28;20747;-70
2021/04/15 00:27:42;;;;;;;5.40;4.90;;;5.50;99.90;;;;;;5008290;28;20320;-72
2021/04/15 00:30:09;;;;;;;5.70;4.80;;;5.40;99.90;;;;;;5006897;28;20442;-71
2021/04/15 00:32:35;;;;;;;5.63;5.20;;;5.40;99.90;;;;;;4996511;28;20573;-71
2021/04/15 00:35:01;;;;;;;5.17;4.73;;;5.40;99.90;;;;;;5001501;28;20467;-71
2021/04/15 00:37:26;;;;;;;9.50;5.20;;;5.40;99.90;;;;;;4999981;28;20185;-71
2021/04/15 00:39:52;;;;;;;5.50;4.83;;;5.30;99.90;;;;;;5002391;28;20180;-70
2021/04/15 00:42:18;;;;;;;6.00;5.50;;;5.30;99.90;;;;;;5009490;28;20324;-69
2021/04/15 00:44:44;;;;;;;5.93;5.43;;;5.30;99.90;;;;;;4999309;28;21281;-71
2021/04/15 00:47:15;;;;;;;12.63;5.87;;;5.30;99.90;;;;;;5000525;28;20775;-74
2021/04/15 00:50:03;;;;;;;8.43;5.43;;;5.30;99.90;;;;;;4999864;28;20190;-70
2021/04/15 00:52:34;;;;;;;12.60;6.37;;;5.30;99.90;;;;;;4999431;28;20942;-72
2021/04/15 00:55:06;;;;;;;8.60;6.00;;;5.20;99.90;;;;;;5002600;28;20477;-71
2021/04/15 00:57:36;;;;;;;7.30;5.47;;;5.20;99.90;;;;;;5000201;28;20449;-69
2021/04/15 01:00:05;;;;;;;5.73;5.23;;;5.20;99.90;;;;;;5002467;28;20533;-71
2021/04/15 01:02:34;;;;;;;5.70;5.20;;;5.10;99.90;;;;;;4999932;28;20451;-72
2021/04/15 01:05:12;;;;;;;7.00;5.97;;;5.00;99.90;;;;;;5001318;28;20459;-70
2021/04/15 01:07:37;;;;;;;5.37;4.87;;;5.10;99.90;;;;;;5013595;28;20447;-71
2021/04/15 01:10:05;;;;;;;5.87;4.90;;;5.00;99.90;;;;;;5000510;28;20424;-70
2021/04/15 01:12:42;;;;;;;4.37;4.07;;;5.10;99.90;;;;;;5001911;28;20180;-71
2021/04/15 01:15:23;;;;;;;10.40;5.53;;;5.00;99.90;;;;;;5000970;28;20858;-69
2021/04/15 01:17:59;;;;;;;11.13;6.33;;;5.00;99.90;;;;;;5003782;28;20424;-69
2021/04/15 01:20:48;;;;;;;10.57;5.60;;;5.00;99.90;;;;;;5003705;28;20432;-70
2021/04/15 01:23:40;;;;;;;5.67;5.10;;;5.00;99.90;;;;;;4999419;28;20519;-72
2021/04/15 01:26:18;;;;;;;7.93;5.80;;;4.90;99.90;;;;;;4991517;28;20487;-70
2021/04/15 01:29:11;;;;;;;6.87;5.60;;;4.90;99.90;;;;;;4998804;28;20424;-70
2021/04/15 01:32:07;;;;;;;5.53;5.03;;;4.90;99.90;;;;;;5002917;28;20416;-73
2021/04/15 01:35:01;;;;;;;5.40;4.90;;;4.80;99.90;;;;;;5004023;28;20518;-70
2021/04/15 01:37:40;;;;;;;5.87;5.30;;;4.80;99.90;;;;;;4993816;28;20972;-70
2021/04/15 01:40:15;;;;;;;5.13;4.57;;;4.80;99.90;;;;;;5005399;28;20423;-72
2021/04/15 01:43:10;;;;;;;5.40;4.90;;;4.80;99.90;;;;;;5007298;28;20550;-72
2021/04/15 01:45:37;;;;;;;4.87;4.47;;;4.80;99.90;;;;;;4990208;28;20457;-71
2021/04/15 01:48:10;;;;;;;5.03;4.63;;;4.80;99.90;;;;;;5003004;28;20445;-70
2021/04/15 01:50:44;;;;;;;7.80;5.93;;;4.70;99.90;;;;;;5007249;28;20443;-70
2021/04/15 01:53:23;;;;;;;9.90;5.70;;;4.70;99.90;;;;;;5010271;28;20905;-70
2021/04/15 01:55:54;;;;;;;6.23;5.63;;;4.70;99.90;;;;;;5009685;28;20458;-72
2021/04/15 01:58:29;;;;;;;5.83;5.23;;;4.70;99.90;;;;;;5006392;28;20487;-70
2021/04/15 02:01:06;;;;;;;12.13;5.30;;;4.70;99.90;;;;;;5009217;28;20435;-72
2021/04/15 02:03:35;;;;;;;5.90;5.30;;;4.70;99.90;;;;;;5005072;28;20510;-69
2021/04/15 02:06:10;;;;;;;6.20;5.60;;;4.70;99.90;;;;;;5007025;28;20431;-70
2021/04/15 02:08:41;;;;;;;6.13;5.53;;;4.60;99.90;;;;;;5007053;28;20437;-70
2021/04/15 02:11:25;;;;;;;5.87;4.93;;;4.60;99.90;;;;;;5003986;28;20429;-69
2021/04/15 02:13:53;;;;;;;9.10;5.57;;;4.60;99.90;;;;;;5005796;28;20537;-70
2021/04/15 02:16:24;;;;;;;7.37;5.20;;;4.60;99.90;;;;;;5006107;28;20571;-70
2021/04/15 02:18:53;;;;;;;6.60;5.60;;;4.50;99.90;;;;;;5005670;28;20437;-70
2021/04/15 02:21:44;;;;;;;6.33;5.73;;;4.40;99.90;;;;;;5014677;28;20416;-71
2021/04/15 02:24:29;;;;;;;5.70;5.10;;;4.40;99.90;;;;;;5011984;28;20465;-70
2021/04/15 02:27:03;;;;;;;6.10;5.50;;;4.40;99.90;;;;;;5009471;28;20475;-71
2021/04/15 02:29:32;;;;;;;6.83;5.70;;;4.40;99.90;;;;;;5012374;28;20474;-71
2021/04/15 02:32:18;;;;;;;6.90;6.07;;;4.40;99.90;;;;;;5014300;28;20455;-71
2021/04/15 02:35:04;;;;;;;7.30;6.00;;;4.30;99.90;;;;;;5004197;28;20444;-69
2021/04/15 02:37:47;;;;;;;5.93;5.47;;;4.30;99.90;;;;;;5004405;28;21155;-72
2021/04/15 02:40:28;;;;;;;6.83;6.17;;;4.30;99.90;;;;;;5002690;28;20574;-72
2021/04/15 02:42:57;;;;;;;8.50;6.10;;;4.20;99.90;;;;;;5002118;28;20436;-72
2021/04/15 02:45:35;;;;;;;6.53;5.77;;;4.30;99.90;;;;;;5008691;28;20592;-70
2021/04/15 02:48:24;;;;;;;8.90;6.67;;;4.30;99.90;;;;;;5002567;28;20511;-71
2021/04/15 02:51:01;;;;;;;7.40;6.70;;;4.20;99.90;;;;;;5001913;28;20440;-71
2021/04/15 02:53:42;;;;;;;6.57;5.93;;;4.10;99.90;;;;;;5004262;28;20444;-72
2021/04/15 02:56:32;;;;;;;6.13;5.53;;;4.10;99.90;;;;;;5005567;28;20423;-70
2021/04/15 02:59:14;;;;;;;8.50;6.10;;;4.00;99.90;;;;;;5001395;28;20814;-69
2021/04/15 03:01:44;;;;;;;6.40;5.80;;;4.00;99.90;;;;;;5004216;28;20432;-70
2021/04/15 03:04:19;;;;;;;6.80;6.10;;;3.90;99.90;;;;;;5001971;28;20547;-71
2021/04/15 03:06:46;;;;;;;6.87;5.90;;;4.00;99.90;;;;;;5002354;28;20420;-70
2021/04/15 03:09:13;;;;;;;6.50;5.53;;;4.00;99.90;;;;;;5004104;28;20424;-73
2021/04/15 03:12:09;;;;;;;9.27;5.63;;;3.90;99.90;;;;;;5004557;28;21111;-71
2021/04/15 03:15:16;;;;;;;6.03;5.43;;;3.90;99.90;;;;;;5004295;28;20467;-70
2021/04/15 03:17:45;;;;;;;8.50;5.87;;;3.90;99.90;;;;;;4999602;28;20446;-72
2021/04/15 03:20:26;;;;;;;5.53;5.13;;;4.00;99.90;;;;;;5010802;28;20996;-70
2021/04/15 03:23:01;;;;;;;6.70;5.87;;;3.90;99.90;;;;;;5010784;28;20675;-68
2021/04/15 03:25:27;;;;;;;7.50;5.63;;;3.90;99.90;;;;;;5004419;28;20471;-69
2021/04/15 03:28:17;;;;;;;6.17;5.67;;;3.90;99.90;;;;;;5000875;28;20915;-70
2021/04/15 03:31:06;;;;;;;6.77;6.17;;;3.90;99.90;;;;;;5002195;28;20537;-70
2021/04/15 03:33:41;;;;;;;6.67;5.33;;;3.80;99.90;;;;;;5012211;28;20886;-72
2021/04/15 03:36:17;;;;;;;7.90;6.10;;;3.80;99.90;;;;;;5004992;28;20731;-69
2021/04/15 03:38:53;;;;;;;6.50;5.90;;;3.80;99.90;;;;;;5012471;28;20419;-71
2021/04/15 03:41:27;;;;;;;7.87;5.83;;;3.70;99.90;;;;;;5009958;28;20450;-71
2021/04/15 03:44:01;;;;;;;7.67;6.00;;;3.70;99.90;;;;;;5008085;28;20479;-71
2021/04/15 03:46:59;;;;;;;6.03;5.50;;;3.70;99.90;;;;;;5009278;28;20410;-69
2021/04/15 03:49:36;;;;;;;5.77;5.10;;;3.70;99.90;;;;;;5012770;28;20510;-71
2021/04/15 03:52:18;;;;;;;7.13;6.00;;;3.70;99.90;;;;;;5009048;28;20415;-70
2021/04/15 03:54:48;;;;;;;6.10;5.37;;;3.50;99.90;;;;;;5010238;28;20448;-69
2021/04/15 03:57:21;;;;;;;6.90;5.60;;;3.50;99.90;;;;;;5011182;28;20477;-70
2021/04/15 03:59:56;;;;;;;6.17;4.93;;;3.40;99.90;;;;;;5008691;28;20470;-70
2021/04/15 04:02:30;;;;;;;6.73;5.90;;;3.30;99.90;;;;;;5014602;28;20476;-70
2021/04/15 04:05:01;;;;;;;9.10;5.77;;;3.30;99.90;;;;;;5011482;28;20553;-71
2021/04/15 04:07:41;;;;;;;5.57;5.07;;;3.20;99.90;;;;;;5003468;28;20416;-71
2021/04/15 04:10:12;;;;;;;5.90;5.30;;;3.20;99.90;;;;;;5001943;28;20464;-71
2021/04/15 04:12:51;;;;;;;6.30;5.70;;;3.20;99.90;;;;;;5007420;28;20419;-71
2021/04/15 04:15:24;;;;;;;7.70;5.53;;;3.20;99.90;;;;;;5003106;28;20475;-70
2021/04/15 04:18:08;;;;;;;7.40;6.67;;;3.10;99.90;;;;;;5007692;28;20420;-72
2021/04/15 04:20:38;;;;;;;5.73;5.30;;;3.10;99.90;;;;;;5001150;28;20439;-74
2021/04/15 04:23:10;;;;;;;6.87;5.63;;;3.10;99.90;;;;;;5001713;28;20442;-69
2021/04/15 04:25:52;;;;;;;6.70;5.40;;;3.20;99.90;;;;;;5002090;28;20875;-70
2021/04/15 04:28:27;;;;;;;6.00;5.50;;;3.10;99.90;;;;;;5003240;28;20929;-70
2021/04/15 04:30:52;;;;;;;5.13;4.73;;;3.10;99.90;;;;;;5000345;28;20418;-70
2021/04/15 04:33:24;;;;;;;6.07;5.37;;;3.10;99.90;;;;;;5006403;28;20542;-71
2021/04/15 04:35:51;;;;;;;6.37;5.80;;;3.10;99.90;;;;;;5006035;28;20208;-71
2021/04/15 04:38:20;;;;;;;6.23;5.63;;;3.10;99.90;;;;;;5007635;28;20800;-69
2021/04/15 04:40:53;;;;;;;5.47;5.07;;;3.10;99.90;;;;;;5007963;28;20416;-71
2021/04/15 04:43:49;;;;;;;6.30;5.70;;;3.10;99.90;;;;;;5008069;28;20431;-72
2021/04/15 04:46:40;;;;;;;7.30;5.60;;;3.00;99.90;;;;;;5007146;28;20488;-70
2021/04/15 04:49:12;;;;;;;4.70;4.30;;;3.00;99.90;;;;;;5014360;28;20424;-71
2021/04/15 04:52:09;;;;;;;8.20;6.57;;;3.00;99.90;;;;;;5011069;28;20493;-71
2021/04/15 04:54:38;;;;;;;6.07;5.57;;;3.00;99.90;;;;;;5006501;28;20461;-70
2021/04/15 04:57:20;;;;;;;5.50;5.00;;;3.10;99.90;;;;;;5010479;28;20466;-70
2021/04/15 04:59:49;;;;;;;6.43;5.70;;;3.10;99.90;;;;;;5001635;28;20519;-71
2021/04/15 05:02:16;;;;;;;7.07;6.47;;;3.10;99.90;;;;;;5010351;28;20439;-70
2021/04/15 05:04:43;;;;;;;7.03;6.33;;;3.00;99.90;;;;;;5010734;28;20478;-70
2021/04/15 05:07:25;;;;;;;10.60;5.93;;;3.00;99.90;;;;;;5011320;28;20517;-69
2021/04/15 05:09:52;;;;;;;9.33;6.20;;;2.90;99.90;;;;;;5004256;28;20422;-69
2021/04/15 05:12:22;;;;;;;7.53;6.00;;;2.90;99.90;;;;;;5004996;28;20426;-70
2021/04/15 05:14:51;;;;;;;9.63;6.20;;;2.90;99.90;;;;;;5004152;28;20465;-70
2021/04/15 05:17:17;;;;;;;6.80;5.70;;;2.90;99.90;;;;;;5003684;28;20964;-70
2021/04/15 05:19:43;;;;;;;11.53;6.80;;;2.90;99.90;;;;;;5001438;28;20429;-71
2021/04/15 05:22:19;;;;;;;10.63;6.80;;;2.90;99.90;;;;;;5001693;28;20661;-70
2021/04/15 05:24:55;;;;;;;16.93;5.90;;;3.00;99.90;;;;;;5000650;28;20220;-71
2021/04/15 05:27:22;;;;;;;9.53;6.07;;;3.00;99.90;;;;;;5003327;28;20435;-71
2021/04/15 05:29:59;;;;;;;8.30;6.87;;;3.00;99.90;;;;;;5002763;28;20461;-72
2021/04/15 05:32:26;;;;;;;13.63;6.70;;;3.00;99.90;;;;;;5004921;28;20533;-72
2021/04/15 05:34:55;;;;;;;7.13;6.43;;;3.10;99.90;;;;;;5004845;28;20458;-72
2021/04/15 05:37:25;;;;;;;8.47;7.47;;;3.10;99.90;;;;;;5007424;28;20416;-69
2021/04/15 05:39:52;;;;;;;9.50;7.13;;;3.10;99.90;;;;;;5005680;28;20416;-71
2021/04/15 05:42:29;;;;;;;7.70;6.07;;;3.20;99.90;;;;;;5004996;28;20451;-69
2021/04/15 05:45:12;;;;;;;7.77;6.97;;;3.20;99.90;;;;;;5004859;28;20469;-70
2021/04/15 05:48:02;;;;;;;11.63;6.60;;;3.20;99.90;;;;;;5005619;28;20431;-70
2021/04/15 05:50:32;;;;;;;9.50;6.17;;;3.20;99.90;;;;;;5003803;28;20439;-70
2021/04/15 05:53:26;;;;;;;8.90;6.40;;;3.30;99.90;;;;;;5005155;28;22182;-74
2021/04/15 05:56:03;;;;;;;8.23;6.30;;;3.30;99.90;;;;;;4995829;28;20470;-70
2021/04/15 05:58:43;;;;;;;15.23;6.90;;;3.40;99.90;;;;;;5005536;28;20438;-71
2021/04/15 06:01:31;;;;;;;9.43;7.17;;;3.40;99.90;;;;;;5002532;28;20434;-70
2021/04/15 06:03:58;;;;;;;7.07;6.30;;;3.50;99.90;;;;;;4996861;28;20555;-70
2021/04/15 06:06:33;;;;;;;9.63;6.30;;;3.60;99.90;;;;;;5002337;28;21064;-71
2021/04/15 06:09:01;;;;;;;7.07;6.47;;;3.70;99.90;;;;;;5001404;28;20481;-70
2021/04/15 06:11:45;;;;;;;10.60;6.23;;;3.80;99.90;;;;;;5002588;28;20431;-73
2021/04/15 06:14:19;;;;;;;8.33;6.80;;;3.80;99.90;;;;;;5000465;28;21821;-72
2021/04/15 06:17:18;;;;;;;8.30;6.73;;;3.80;99.90;;;;;;5001416;28;20530;-72
2021/04/15 06:19:48;;;;;;;10.57;6.27;;;4.00;99.90;;;;;;4975917;28;20427;-70
2021/04/15 06:22:20;;;;;;;12.40;6.57;;;4.10;99.90;;;;;;5004713;28;20444;-72
2021/04/15 06:24:49;;;;;;;7.20;6.50;;;4.10;99.90;;;;;;5003711;28;20589;-71
2021/04/15 06:27:16;;;;;;;10.13;6.53;;;4.10;99.90;;;;;;5004812;28;20935;-71
2021/04/15 06:29:53;;;;;;;8.40;6.53;;;4.20;99.90;;;;;;5005509;28;20422;-71
2021/04/15 06:32:25;;;;;;;11.23;7.03;;;4.20;99.90;;;;;;5007841;28;20793;-71
2021/04/15 06:34:54;;;;;;;11.00;5.63;;;4.20;99.90;;;;;;5003759;28;20496;-70
2021/04/15 06:37:32;;;;;;;6.63;6.10;;;4.30;99.90;;;;;;5006530;28;21181;-70
2021/04/15 06:40:33;;;;;;;10.40;6.67;;;4.30;99.90;;;;;;5008523;28;20550;-71
2021/04/15 06:43:29;;;;;;;7.80;6.23;;;4.30;99.90;;;;;;4975975;28;20537;-74
2021/04/15 06:46:24;;;;;;;10.50;5.60;;;4.40;99.90;;;;;;5006930;28;20431;-70
2021/04/15 06:49:20;;;;;;;6.63;5.80;;;4.50;99.90;;;;;;5007468;28;20847;-71
2021/04/15 06:51:58;;;;;;;6.27;5.67;;;4.50;99.90;;;;;;5009312;28;20949;-71
2021/04/15 06:54:32;;;;;;;5.83;5.23;;;4.60;99.90;;;;;;5008335;28;20787;-72
2021/04/15 06:57:22;;;;;;;8.20;6.23;;;4.70;99.90;;;;;;5014636;28;20451;-71
2021/04/15 07:00:26;;;;;;;6.83;5.87;;;4.80;99.90;;;;;;5009423;28;20434;-71
2021/04/15 07:03:03;;;;;;;8.30;6.47;;;4.90;99.90;;;;;;4923472;29;20436;-73
2021/04/15 07:05:42;;;;;;;7.67;6.50;;;5.00;99.90;;;;;;4924708;29;20475;-73
2021/04/15 07:08:26;;;;;;;9.13;6.77;;;5.10;99.90;;;;;;4967053;28;20827;-71
2021/04/15 07:11:10;;;;;;;7.10;6.40;;;5.20;99.90;;;;;;5005400;28;20803;-72
2021/04/15 07:14:09;;;;;;;6.63;4.90;;;5.30;99.90;;;;;;5011645;28;20446;-71
2021/04/15 07:16:43;;;;;;;6.03;5.43;;;5.40;99.90;;;;;;5009411;28;20475;-72
2021/04/15 07:19:20;;;;;;;5.60;5.10;;;5.50;99.90;;;;;;5010738;28;20419;-73
2021/04/15 07:22:14;;;;;;;6.13;5.40;;;5.60;99.90;;;;;;5009240;28;20494;-71
2021/04/15 07:24:49;;;;;;;6.27;5.73;;;5.70;99.90;;;;;;5010451;28;21046;-70
2021/04/15 07:27:30;;;;;;;5.83;5.33;;;5.80;99.90;;;;;;5007883;28;20411;-70
2021/04/15 07:30:13;;;;;;;8.47;5.40;;;5.80;99.90;;;;;;5008417;28;21091;-70
2021/04/15 07:33:10;;;;;;;6.20;5.70;;;5.90;99.90;;;;;;5010282;28;21584;-72
2021/04/15 07:36:03;;;;;;;14.57;5.67;;;6.10;99.90;;;;;;5010748;28;20470;-71
2021/04/15 07:38:44;;;;;;;8.97;5.17;;;6.10;99.90;;;;;;5010304;28;20455;-71
2021/04/15 07:41:19;;;;;;;5.60;5.07;;;6.20;99.90;;;;;;4996676;28;20519;-70
2021/04/15 07:44:02;;;;;;;7.53;5.40;;;6.20;99.90;;;;;;4996895;28;20695;-73
2021/04/15 07:46:44;;;;;;;33.17;9.40;;;6.30;99.90;;;;;;4999871;28;20443;-71
2021/04/15 07:49:54;;;;;;;9.00;5.33;;;6.30;99.90;;;;;;5008470;28;20459;-71
2021/04/15 07:52:38;;;;;;;7.60;5.50;;;6.50;99.90;;;;;;4986388;28;20452;-72
2021/04/15 07:55:35;;;;;;;5.70;5.20;;;6.60;99.90;;;;;;5007144;28;21020;-72
2021/04/15 07:58:15;;;;;;;5.57;5.07;;;6.80;99.90;;;;;;5005445;28;20427;-71
2021/04/15 08:01:18;;;;;;;9.20;6.10;;;6.80;99.90;;;;;;5005144;28;21055;-71
2021/04/15 08:03:56;;;;;;;6.77;5.40;;;6.80;99.90;;;;;;5000827;28;20970;-73
2021/04/15 08:07:14;;;;;;;5.67;5.23;;;7.00;99.90;;;;;;5001565;28;20446;-72
2021/04/15 08:09:52;;;;;;;6.17;5.60;;;7.00;99.90;;;;;;5004635;28;20431;-72
2021/04/15 08:12:43;;;;;;;6.93;5.33;;;7.10;99.90;;;;;;5008320;28;20415;-71
2021/04/15 08:15:32;;;;;;;8.40;5.03;;;7.40;99.90;;;;;;5003002;28;20526;-72
2021/04/15 08:18:18;;;;;;;6.00;5.50;;;7.50;99.90;;;;;;5006079;28;20434;-70
2021/04/15 08:20:50;;;;;;;14.00;5.43;;;7.40;99.90;;;;;;5008132;28;20419;-71
2021/04/15 08:23:52;;;;;;;9.27;6.80;;;7.60;99.90;;;;;;5000537;28;20978;-71
2021/04/15 08:26:55;;;;;;;6.10;5.13;;;7.90;99.90;;;;;;5000082;28;20446;-72
2021/04/15 08:29:55;;;;;;;8.73;5.30;;;7.90;99.90;;;;;;5002669;28;20532;-71
2021/04/15 08:32:32;;;;;;;8.20;4.90;;;8.20;99.90;;;;;;4996668;28;20442;-72
2021/04/15 08:35:36;;;;;;;6.03;5.43;;;8.30;99.90;;;;;;4997955;28;20458;-70
2021/04/15 08:38:34;;;;;;;7.03;6.27;;;8.40;99.90;;;;;;5003908;28;20435;-71
2021/04/15 08:41:38;;;;;;;6.00;5.50;;;8.50;99.90;;;;;;4995400;28;20977;-71
2021/04/15 08:44:19;;;;;;;6.53;5.70;;;8.80;99.90;;;;;;5003357;28;20474;-71
2021/04/15 08:47:08;;;;;;;6.23;5.63;;;9.00;99.90;;;;;;5002651;28;20586;-71
2021/04/15 08:49:40;;;;;;;6.70;5.37;;;9.10;99.90;;;;;;4996819;28;20531;-72
2021/04/15 08:52:25;;;;;;;5.30;4.90;;;9.20;99.90;;;;;;4998812;28;20434;-71
2021/04/15 08:55:10;;;;;;;5.97;5.47;;;9.30;99.90;;;;;;5001589;28;20454;-69
2021/04/15 08:57:56;;;;;;;5.30;4.90;;;9.50;99.90;;;;;;5007585;28;20431;-70
2021/04/15 09:00:47;;;;;;;9.83;5.50;;;10.10;99.90;;;;;;4997512;28;21648;-71
2021/04/15 09:03:22;;;;;;;6.57;6.07;;;10.90;99.90;;;;;;5003198;28;20564;-71
2021/04/15 09:06:36;;;;;;;9.97;6.37;;;11.70;99.90;;;;;;5007426;28;20510;-71
2021/04/15 09:09:20;;;;;;;6.63;5.50;;;13.00;98.30;;;;;;5002865;28;20431;-69
2021/04/15 09:12:10;;;;;;;7.37;5.17;;;14.00;91.80;;;;;;5003868;28;20914;-69
2021/04/15 09:14:53;;;;;;;6.73;5.30;;;15.30;87.50;;;;;;5005595;28;20455;-70
2021/04/15 09:17:27;;;;;;;6.60;5.20;;;16.80;75.60;;;;;;5002754;28;20440;-69
2021/04/15 09:20:23;;;;;;;5.40;4.90;;;18.60;66.00;;;;;;5019379;28;20446;-71
2021/04/15 09:23:07;;;;;;;5.17;4.67;;;18.70;56.40;;;;;;5009175;28;20427;-72
2021/04/15 09:25:40;;;;;;;6.80;5.70;;;18.00;53.30;;;;;;5003739;28;20507;-72
2021/04/15 09:28:13;;;;;;;5.47;5.07;;;16.20;55.30;;;;;;5005354;28;20471;-72
2021/04/15 09:30:42;;;;;;;5.83;5.00;;;15.20;55.90;;;;;;5002386;28;20428;-72
2021/04/15 09:33:35;;;;;;;6.10;5.50;;;14.20;56.70;;;;;;5002809;28;20854;-72
2021/04/15 09:36:13;;;;;;;5.20;4.80;;;13.50;58.60;;;;;;5002498;28;20451;-70
2021/04/15 09:38:57;;;;;;;5.40;4.90;;;13.00;59.90;;;;;;5004591;28;20431;-70
2021/04/15 09:41:25;;;;;;;5.20;4.80;;;12.40;60.00;;;;;;5002006;28;20980;-72
2021/04/15 09:44:05;;;;;;;6.10;5.37;;;13.20;61.20;;;;;;5005551;28;20690;-72
2021/04/15 09:47:00;;;;;;;5.00;4.53;;;17.30;57.60;;;;;;5002830;28;20440;-71
2021/04/15 09:49:57;;;;;;;5.70;4.70;;;18.70;51.10;;;;;;4953136;28;20434;-71
2021/04/15 09:52:35;;;;;;;5.30;4.90;;;17.80;50.60;;;;;;5006588;28;20905;-72
2021/04/15 09:55:18;;;;;;;8.20;4.70;;;19.40;47.10;;;;;;5006558;28;20459;-72
2021/04/15 09:58:08;;;;;;;5.37;4.97;;;19.50;45.70;;;;;;5007069;28;20441;-69
2021/04/15 10:00:41;;;;;;;13.50;4.80;;;19.10;44.80;;;;;;5008592;28;20415;-70
2021/04/15 10:03:21;;;;;;;4.93;4.23;;;19.60;44.10;;;;;;5008047;28;20868;-70
2021/04/15 10:05:49;;;;;;;5.90;4.30;;;20.50;43.00;;;;;;5006118;28;20882;-69
2021/04/15 10:08:24;;;;;;;4.57;4.00;;;20.50;39.80;;;;;;5004627;28;20527;-72
2021/04/15 10:11:04;;;;;;;4.33;4.10;;;20.00;39.10;;;;;;5002467;28;20435;-72
2021/04/15 10:13:51;;;;;;;4.90;4.50;;;19.50;39.10;;;;;;5008304;28;20430;-68
2021/04/15 10:16:21;;;;;;;5.03;4.63;;;18.70;39.50;;;;;;5009549;28;20513;-70
2021/04/15 10:19:05;;;;;;;5.10;4.63;;;19.00;39.90;;;;;;5006326;28;20439;-69
2021/04/15 10:21:49;;;;;;;6.90;4.83;;;18.80;39.80;;;;;;5005466;28;20446;-69
2021/04/15 10:24:30;;;;;;;5.37;4.80;;;19.00;39.50;;;;;;5005275;28;20548;-70
2021/04/15 10:27:31;;;;;;;6.60;5.30;;;18.80;40.30;;;;;;5005697;28;20420;-69
2021/04/15 10:30:31;;;;;;;5.40;5.03;;;18.40;40.40;;;;;;5003610;28;20452;-69
2021/04/15 10:33:23;;;;;;;4.60;4.30;;;17.10;41.40;;;;;;5003460;28;20423;-68
2021/04/15 10:35:55;;;;;;;4.80;4.50;;;16.50;39.60;;;;;;5008664;28;21036;-69
2021/04/15 10:38:47;;;;;;;6.37;4.67;;;16.40;41.00;;;;;;5003910;28;20428;-70
2021/04/15 10:41:31;;;;;;;5.27;4.90;;;16.10;41.40;;;;;;5002724;28;20420;-69
2021/04/15 10:44:21;;;;;;;5.53;5.03;;;15.60;40.90;;;;;;5002780;28;20464;-71
2021/04/15 10:46:55;;;;;;;8.13;5.10;;;15.30;41.20;;;;;;4992982;28;20504;-70
2021/04/15 10:49:36;;;;;;;4.93;4.53;;;15.20;42.70;;;;;;4999470;28;20447;-70
2021/04/15 10:52:36;;;;;;;5.80;5.03;;;15.30;43.80;;;;;;4992208;28;20423;-70
2021/04/15 10:55:22;;;;;;;5.63;4.53;;;15.50;42.80;;;;;;4982260;28;20440;-69
2021/04/15 10:57:49;;;;;;;4.60;4.30;;;16.40;42.80;;;;;;5003199;28;20458;-72
2021/04/15 11:00:29;;;;;;;8.13;5.77;;;17.60;41.40;;;;;;5001303;28;20431;-69
2021/04/15 11:03:22;;;;;;;5.37;4.87;;;19.00;38.90;;;;;;4999415;28;20439;-72
2021/04/15 11:05:50;;;;;;;4.50;4.20;;;20.20;37.80;;;;;;4999621;28;20570;-70
2021/04/15 11:08:28;;;;;;;8.50;4.70;;;21.20;37.50;;;;;;5008683;28;20424;-69
2021/04/15 11:11:15;;;;;;;6.13;4.80;;;22.00;38.70;;;;;;5004579;28;21186;-70
2021/04/15 11:13:41;;;;;;;6.10;4.23;;;20.50;36.80;;;;;;5003908;28;20515;-70
2021/04/15 11:16:19;;;;;;;7.97;4.00;;;18.60;37.80;;;;;;5004522;28;20433;-69
2021/04/15 11:18:45;;;;;;;5.30;4.90;;;16.90;39.70;;;;;;5006116;28;21013;-69
2021/04/15 11:21:22;;;;;;;5.27;4.87;;;17.00;42.40;;;;;;5009628;28;20443;-69
2021/04/15 11:24:21;;;;;;;5.27;4.87;;;19.30;42.10;;;;;;5008730;28;20274;-70
2021/04/15 11:26:49;;;;;;;5.60;5.10;;;22.00;41.50;;;;;;4997016;28;20429;-67
2021/04/15 11:29:29;;;;;;;7.37;5.50;;;22.60;41.90;;;;;;5007638;28;20953;-68
2021/04/15 11:31:59;;;;;;;5.63;5.13;;;24.80;41.10;;;;;;5010334;28;20420;-69
2021/04/15 11:34:27;;;;;;;5.60;5.10;;;25.60;38.40;;;;;;5005634;28;20483;-68
2021/04/15 11:37:19;;;;;;;5.50;5.10;;;26.70;37.50;;;;;;5007183;28;20446;-66
2021/04/15 11:39:44;;;;;;;5.90;5.50;;;27.30;35.50;;;;;;5005132;28;20443;-68
2021/04/15 11:42:12;;;;;;;6.07;4.90;;;27.30;34.70;;;;;;5009816;28;20431;-67
2021/04/15 11:44:51;;;;;;;5.40;4.90;;;27.30;35.20;;;;;;5007659;28;20536;-67
2021/04/15 11:47:25;;;;;;;6.00;5.50;;;29.20;33.20;;;;;;4993678;28;20507;-72
2021/04/15 11:49:53;;;;;;;5.57;5.07;;;30.50;30.70;;;;;;4996240;28;20424;-72
2021/04/15 11:52:33;;;;;;;5.90;5.27;;;32.10;29.50;;;;;;5002459;28;20511;-71
2021/04/15 11:55:24;;;;;;;5.47;4.73;;;31.80;27.00;;;;;;5000278;28;20440;-72
2021/04/15 11:57:58;;;;;;;6.37;5.77;;;32.40;27.20;;;;;;5003654;28;20467;-71
2021/04/15 12:00:34;;;;;;;4.83;4.43;;;31.30;27.00;;;;;;5005839;28;20507;-69
2021/04/15 12:02:59;;;;;;;5.27;4.87;;;29.90;26.40;;;;;;5004126;28;20412;-69
2021/04/15 12:05:37;;;;;;;5.00;4.60;;;28.10;27.40;;;;;;5001217;28;20462;-70
2021/04/15 12:08:17;;;;;;;6.23;5.63;;;26.80;28.00;;;;;;5001865;28;20723;-71
2021/04/15 12:10:46;;;;;;;5.60;5.20;;;24.30;28.40;;;;;;5009192;28;20985;-70
2021/04/15 12:13:18;;;;;;;5.03;4.63;;;22.80;29.80;;;;;;5003259;28;20439;-69
2021/04/15 12:15:56;;;;;;;5.20;4.80;;;21.60;30.30;;;;;;4999737;28;20455;-70
2021/04/15 12:18:51;;;;;;;5.63;5.23;;;20.50;31.90;;;;;;5003444;28;20427;-69
2021/04/15 12:21:37;;;;;;;5.47;5.00;;;19.50;33.40;;;;;;5001325;28;20455;-69
2021/04/15 12:24:13;;;;;;;6.10;5.50;;;18.90;33.90;;;;;;5002864;28;20464;-70
2021/04/15 12:26:45;;;;;;;5.63;5.13;;;18.30;35.00;;;;;;5001778;28;20423;-70
2021/04/15 12:29:22;;;;;;;5.40;4.90;;;18.60;34.50;;;;;;5003596;28;20433;-70
2021/04/15 12:31:54;;;;;;;5.23;4.73;;;19.30;32.60;;;;;;5001073;28;20423;-72
2021/04/15 12:34:51;;;;;;;5.17;4.87;;;19.20;32.40;;;;;;5001648;28;20508;-69
2021/04/15 12:37:26;;;;;;;6.30;4.60;;;18.80;32.20;;;;;;4996418;28;20883;-71
2021/04/15 12:40:11;;;;;;;5.03;4.73;;;18.60;32.20;;;;;;5006707;28;20447;-70
2021/04/15 12:42:38;;;;;;;5.50;5.00;;;18.00;31.90;;;;;;5002640;28;20443;-71
2021/04/15 12:45:10;;;;;;;5.00;4.60;;;17.80;32.50;;;;;;5003572;28;20846;-69
2021/04/15 12:47:40;;;;;;;5.00;4.60;;;18.30;33.60;;;;;;5001861;28;20507;-71
2021/04/15 12:50:08;;;;;;;6.80;4.70;;;18.80;33.10;;;;;;5003114;28;20799;-71
2021/04/15 12:52:34;;;;;;;5.10;4.60;;;19.30;32.60;;;;;;5004286;28;20519;-70
2021/04/15 12:55:01;;;;;;;5.03;4.67;;;19.60;32.90;;;;;;5003340;28;21004;-71
2021/04/15 12:57:30;;;;;;;6.77;5.20;;;20.90;32.30;;;;;;5009691;28;20507;-70
2021/04/15 12:59:57;;;;;;;5.63;5.17;;;21.70;33.50;;;;;;5006730;28;20417;-71
2021/04/15 13:02:29;;;;;;;5.87;5.37;;;19.90;33.60;;;;;;5010370;28;20455;-70
2021/04/15 13:05:09;;;;;;;5.13;4.83;;;18.10;35.90;;;;;;5000273;28;20480;-69
2021/04/15 13:07:41;;;;;;;4.77;4.47;;;16.60;38.00;;;;;;5004508;28;20485;-72
2021/04/15 13:10:12;;;;;;;5.53;5.03;;;15.80;39.90;;;;;;5005871;28;20423;-69
2021/04/15 13:12:42;;;;;;;6.17;5.27;;;15.10;40.80;;;;;;5008354;28;20435;-70
2021/04/15 13:15:28;;;;;;;5.17;4.67;;;14.70;41.80;;;;;;5000303;28;20974;-70
2021/04/15 13:18:07;;;;;;;5.00;4.50;;;14.20;42.30;;;;;;5005730;28;20415;-70
2021/04/15 13:20:39;;;;;;;6.50;5.20;;;13.70;42.30;;;;;;5008788;28;20506;-69
2021/04/15 13:23:08;;;;;;;5.13;4.73;;;13.00;41.90;;;;;;5002882;28;20438;-69
2021/04/15 13:25:54;;;;;;;4.90;4.60;;;12.70;42.50;;;;;;5003175;28;20932;-71
2021/04/15 13:28:24;;;;;;;5.90;5.50;;;12.50;43.00;;;;;;5002431;28;20472;-69
2021/04/15 13:30:55;;;;;;;5.60;5.07;;;12.40;43.00;;;;;;5004236;28;20428;-71
2021/04/15 13:33:34;;;;;;;5.60;4.90;;;12.50;43.60;;;;;;5003702;28;20433;-72
2021/04/15 13:36:00;;;;;;;5.13;4.73;;;14.10;43.70;;;;;;5004160;28;20483;-69
2021/04/15 13:38:34;;;;;;;5.67;5.17;;;16.60;42.90;;;;;;5008397;28;20447;-69
2021/04/15 13:41:27;;;;;;;5.13;4.73;;;17.50;41.20;;;;;;4997950;28;20177;-70
2021/04/15 13:44:08;;;;;;;5.53;5.13;;;18.70;40.40;;;;;;5006042;28;20487;-72
2021/04/15 13:46:47;;;;;;;5.73;5.10;;;20.20;39.50;;;;;;5004560;28;21079;-70
2021/04/15 13:49:12;;;;;;;4.97;4.67;;;22.00;36.30;;;;;;5009165;28;20446;-70
2021/04/15 13:52:04;;;;;;;5.30;4.90;;;24.80;33.20;;;;;;5010110;28;20915;-70